Terminal Aerodrome Forecast
Issued by NWS

Home | Current Version | Previous Version | Text Only | Print | Product List | Glossary On
Versions: 1 2 3 4 5 6 7 8 9 10 11 12 13 14
000
FTUS43 KMPX 231720
TAFRNH
TAF
KRNH 231720Z 2318/2418 18014G22KT P6SM SCT040 BKN250
     FM240000 17007KT P6SM SCT050 BKN150 PROB30 2404/2407 4SM -TSRA
      OVC035CB
     FM240700 15007KT P6SM -SHRA SCT015 OVC030 PROB30 2407/2410 5SM
      -TSRA BR BKN015CB
     FM241100 23005KT 6SM BR SCT007 OVC015
     FM241500 27007KT P6SM SCT015 OVC025=

USA.gov is the U.S. government's official web portal to all federal, state and local government web resources and services.